createdAt,value
2022-12-17T00:02:19.214Z,62.35
2022-12-17T00:04:47.036Z,63.10
2022-12-17T00:07:14.031Z,63.30
2022-12-17T00:09:44.583Z,62.30
2022-12-17T00:12:14.302Z,61.67
2022-12-17T00:14:43.949Z,63.17
2022-12-17T00:17:10.999Z,62.13
2022-12-17T00:19:40.752Z,64.05
2022-12-17T00:22:07.918Z,64.65
2022-12-17T00:24:37.727Z,61.17
2022-12-17T00:27:07.092Z,66.70
2022-12-17T00:29:37.004Z,61.28
2022-12-17T00:32:06.467Z,66.22
2022-12-17T00:34:33.936Z,65.10
2022-12-17T00:37:01.295Z,64.15
2022-12-17T00:39:28.695Z,64.63
2022-12-17T00:41:55.895Z,63.75
2022-12-17T00:44:23.733Z,65.70
2022-12-17T00:46:50.866Z,66.45
2022-12-17T00:49:19.547Z,66.18
2022-12-17T00:51:46.643Z,65.55
2022-12-17T00:54:14.304Z,64.40
2022-12-17T00:56:41.568Z,63.70
2022-12-17T00:59:11.289Z,66.28
2022-12-17T01:01:38.583Z,62.53
2022-12-17T01:04:08.717Z,61.95
2022-12-17T01:06:36.094Z,66.55
2022-12-17T01:09:03.486Z,68.10
2022-12-17T01:11:30.654Z,66.47
2022-12-17T01:13:58.048Z,66.30
2022-12-17T01:16:27.398Z,66.25
2022-12-17T01:18:55.529Z,63.85
2022-12-17T01:21:25.968Z,62.80
2022-12-17T01:23:57.962Z,64.10
2022-12-17T01:26:27.833Z,62.25
2022-12-17T01:28:57.529Z,65.20
2022-12-17T01:31:24.836Z,62.95
2022-12-17T01:33:56.947Z,63.78
2022-12-17T01:36:24.011Z,64.20
2022-12-17T01:38:51.350Z,61.00
2022-12-17T01:41:19.426Z,63.15
2022-12-17T01:43:47.111Z,63.08
2022-12-17T01:46:14.199Z,64.68
2022-12-17T01:48:45.033Z,61.63
2022-12-17T01:51:12.651Z,60.53
2022-12-17T01:53:51.427Z,62.58
2022-12-17T01:56:19.142Z,64.75
2022-12-17T01:58:47.453Z,61.78
2022-12-17T02:01:17.328Z,61.08
2022-12-17T02:03:47.034Z,60.28
2022-12-17T02:06:26.100Z,62.25
2022-12-17T02:08:59.738Z,60.00
2022-12-17T02:11:59.563Z,59.70
2022-12-17T02:14:40.070Z,62.00
2022-12-17T02:17:10.825Z,60.33
2022-12-17T02:19:57.697Z,57.30
2022-12-17T02:22:38.689Z,52.90
2022-12-17T02:25:33.985Z,55.20
2022-12-17T02:28:01.290Z,56.83
2022-12-17T02:30:31.108Z,54.63
2022-12-17T02:32:59.817Z,54.80
2022-12-17T02:35:32.148Z,56.53
2022-12-17T02:37:59.481Z,56.13
2022-12-17T02:40:29.165Z,54.40
2022-12-17T02:42:56.807Z,55.25
2022-12-17T02:45:25.042Z,53.17
2022-12-17T02:47:55.002Z,55.90
2022-12-17T02:50:22.760Z,56.38
2022-12-17T02:52:50.256Z,53.95
2022-12-17T02:55:17.781Z,57.03
2022-12-17T02:57:50.867Z,54.55
2022-12-17T03:03:06.150Z,54.30
2022-12-17T03:05:45.106Z,56.38
2022-12-17T03:08:15.390Z,54.47
2022-12-17T03:10:42.821Z,53.00
2022-12-17T03:13:09.852Z,52.25
2022-12-17T03:15:37.281Z,54.97
2022-12-17T03:18:06.760Z,55.08
2022-12-17T03:20:36.491Z,50.90
2022-12-17T03:23:11.389Z,51.80
2022-12-17T03:25:38.800Z,51.88
2022-12-17T03:28:07.834Z,51.85
2022-12-17T03:30:36.479Z,52.92
2022-12-17T03:33:10.738Z,51.90
2022-12-17T03:38:11.456Z,50.63
2022-12-17T03:40:41.011Z,49.95
2022-12-17T03:43:12.137Z,49.92
2022-12-17T03:45:39.809Z,49.13
2022-12-17T03:48:11.223Z,49.38
2022-12-17T03:50:41.236Z,51.60
2022-12-17T03:53:10.513Z,48.00
2022-12-17T03:55:37.936Z,46.63
2022-12-17T03:58:05.301Z,47.00
2022-12-17T04:00:32.576Z,46.47
2022-12-17T04:02:59.915Z,43.30
2022-12-17T04:05:27.889Z,45.10
2022-12-17T04:07:54.930Z,46.08
2022-12-17T04:10:22.266Z,44.58
2022-12-17T04:12:50.178Z,43.42
2022-12-17T04:15:17.644Z,44.40
2022-12-17T04:17:44.700Z,46.30
2022-12-17T04:20:12.345Z,44.67
2022-12-17T04:22:39.510Z,43.72
2022-12-17T04:25:07.152Z,41.97
2022-12-17T04:27:37.128Z,41.58
2022-12-17T04:30:04.824Z,42.92
2022-12-17T04:32:35.570Z,42.22
2022-12-17T04:35:03.228Z,41.67
2022-12-17T04:37:30.354Z,41.45
2022-12-17T04:39:59.909Z,40.40
2022-12-17T04:42:27.099Z,38.58
2022-12-17T04:44:56.640Z,40.53
2022-12-17T04:47:23.658Z,39.63
2022-12-17T04:49:51.119Z,37.70
2022-12-17T04:52:18.290Z,35.83
2022-12-17T04:54:48.026Z,35.30
2022-12-17T04:57:17.666Z,35.53
2022-12-17T04:59:44.989Z,36.60
2022-12-17T05:02:12.161Z,33.45
2022-12-17T05:04:39.833Z,35.05
2022-12-17T05:07:09.074Z,33.63
2022-12-17T05:09:36.397Z,34.10
2022-12-17T05:12:03.741Z,35.10
2022-12-17T05:14:33.450Z,35.15
2022-12-17T05:17:00.469Z,34.47
2022-12-17T05:19:28.092Z,35.33
2022-12-17T05:21:55.229Z,32.13
2022-12-17T05:24:24.815Z,31.58
2022-12-17T05:26:51.913Z,33.33
2022-12-17T05:29:21.981Z,34.17
2022-12-17T05:31:51.557Z,31.73
2022-12-17T05:34:19.006Z,30.15
2022-12-17T05:36:46.164Z,30.73
2022-12-17T05:39:13.685Z,31.23
2022-12-17T05:41:40.872Z,32.50
2022-12-17T05:44:08.299Z,32.13
2022-12-17T05:46:35.513Z,29.30
2022-12-17T05:49:02.896Z,30.80
2022-12-17T05:51:33.455Z,31.55
2022-12-17T05:54:03.212Z,31.58
2022-12-17T05:56:30.224Z,31.73
2022-12-17T05:59:00.239Z,33.05
2022-12-17T06:01:27.375Z,32.00
2022-12-17T06:03:55.203Z,35.08
2022-12-17T06:06:22.399Z,32.47
2022-12-17T06:08:49.873Z,30.60
2022-12-17T06:11:19.215Z,29.05
2022-12-17T06:13:48.836Z,29.60
2022-12-17T06:16:15.982Z,29.08
2022-12-17T06:18:43.438Z,30.27
2022-12-17T06:21:12.923Z,29.90
2022-12-17T06:23:42.958Z,29.05
2022-12-17T06:26:10.187Z,28.48
2022-12-17T06:28:40.429Z,30.25
2022-12-17T06:31:07.627Z,30.08
2022-12-17T06:33:35.498Z,29.25
2022-12-17T06:36:03.204Z,28.88
2022-12-17T06:38:30.587Z,29.45
2022-12-17T06:41:02.953Z,27.80
2022-12-17T06:43:30.481Z,27.95
2022-12-17T06:45:59.988Z,28.88
2022-12-17T06:48:27.553Z,28.13
2022-12-17T06:50:55.659Z,27.83
2022-12-17T06:53:25.688Z,28.33
2022-12-17T06:55:58.314Z,28.90
2022-12-17T06:58:25.722Z,27.65
2022-12-17T07:00:52.756Z,27.25
2022-12-17T07:03:20.143Z,28.00
2022-12-17T07:05:47.629Z,27.50
2022-12-17T07:08:15.028Z,28.30
2022-12-17T07:10:42.033Z,27.05
2022-12-17T07:13:09.837Z,29.80
2022-12-17T07:15:36.877Z,28.42
2022-12-17T07:18:06.971Z,29.15
2022-12-17T07:20:34.060Z,30.23
2022-12-17T07:23:01.368Z,29.58
2022-12-17T07:25:28.614Z,31.77
2022-12-17T07:27:58.425Z,30.15
2022-12-17T07:30:25.473Z,30.45
2022-12-17T07:33:04.513Z,28.75
2022-12-17T07:35:31.669Z,27.90
2022-12-17T07:38:03.454Z,30.63
2022-12-17T07:40:30.734Z,28.27
2022-12-17T07:43:09.282Z,29.23
2022-12-17T07:45:36.525Z,28.17
2022-12-17T07:48:04.327Z,28.83
2022-12-17T07:50:31.335Z,28.92
2022-12-17T07:53:04.356Z,29.63
2022-12-17T07:55:31.506Z,28.63
2022-12-17T07:58:03.990Z,30.67
2022-12-17T08:00:31.183Z,29.15
2022-12-17T08:03:00.080Z,29.90
2022-12-17T08:05:30.092Z,27.95
2022-12-17T08:07:57.570Z,30.63
2022-12-17T08:10:24.801Z,26.80
2022-12-17T08:13:08.333Z,28.58
2022-12-17T08:15:40.283Z,29.42
2022-12-17T08:18:07.661Z,26.48
2022-12-17T08:20:34.908Z,27.55
2022-12-17T08:23:04.053Z,26.15
2022-12-17T08:25:33.534Z,25.80
2022-12-17T08:28:04.565Z,26.15
2022-12-17T08:30:38.477Z,26.23
2022-12-17T08:33:08.839Z,27.02
2022-12-17T08:35:35.947Z,26.73
2022-12-17T08:38:09.408Z,27.33
2022-12-17T08:40:36.435Z,27.15
2022-12-17T08:43:04.020Z,26.92
2022-12-17T08:45:33.528Z,23.92
2022-12-17T08:48:10.215Z,23.88
2022-12-17T08:50:37.411Z,27.77
2022-12-17T08:53:04.891Z,29.38
2022-12-17T08:55:32.054Z,25.30
2022-12-17T08:58:00.027Z,25.27
2022-12-17T09:00:27.081Z,24.13
2022-12-17T09:03:02.627Z,26.55
2022-12-17T09:05:30.188Z,25.75
2022-12-17T09:08:06.790Z,23.60
2022-12-17T09:10:34.050Z,22.60
2022-12-17T09:13:05.417Z,20.38
2022-12-17T09:15:33.279Z,21.65
2022-12-17T09:18:00.733Z,20.45
2022-12-17T09:20:29.433Z,21.13
2022-12-17T09:22:57.542Z,21.75
2022-12-17T09:25:27.398Z,19.45
2022-12-17T09:28:03.481Z,21.98
2022-12-17T09:30:33.170Z,21.25
2022-12-17T09:33:00.680Z,18.40
2022-12-17T09:35:27.971Z,19.90
2022-12-17T09:37:56.762Z,19.35
2022-12-17T09:40:25.041Z,19.13
2022-12-17T09:42:59.788Z,19.95
2022-12-17T09:45:31.404Z,18.13
2022-12-17T09:48:01.768Z,19.75
2022-12-17T09:50:29.237Z,22.00
2022-12-17T09:52:57.354Z,18.17
2022-12-17T09:55:28.721Z,17.38
2022-12-17T09:57:56.368Z,16.17
2022-12-17T10:00:26.576Z,18.23
2022-12-17T10:02:54.118Z,14.23
2022-12-17T10:05:26.094Z,13.90
2022-12-17T10:07:54.185Z,14.60
2022-12-17T10:10:24.603Z,14.80
2022-12-17T10:12:54.661Z,13.93
2022-12-17T10:15:21.809Z,13.68
2022-12-17T10:17:53.761Z,13.45
2022-12-17T10:20:33.570Z,13.73
2022-12-17T10:23:00.881Z,14.80
2022-12-17T10:25:28.200Z,13.73
2022-12-17T10:28:01.819Z,14.90
2022-12-17T10:30:32.344Z,13.85
2022-12-17T10:33:04.485Z,14.65
2022-12-17T10:35:37.959Z,14.38
2022-12-17T10:40:59.657Z,14.90
2022-12-17T10:43:38.642Z,12.60
2022-12-17T10:46:06.014Z,14.25
2022-12-17T10:48:36.110Z,15.45
2022-12-17T10:51:04.542Z,13.88
2022-12-17T10:53:34.785Z,14.05
2022-12-17T10:56:02.237Z,13.40
2022-12-17T10:58:30.181Z,14.88
2022-12-17T11:01:00.261Z,13.90
2022-12-17T11:03:48.261Z,13.30
2022-12-17T11:06:30.122Z,13.52
2022-12-17T11:09:00.095Z,12.93
2022-12-17T11:11:29.801Z,13.50
2022-12-17T11:14:00.332Z,14.63
2022-12-17T11:16:34.863Z,13.98
2022-12-17T11:19:11.460Z,13.68
2022-12-17T11:21:47.495Z,13.30
2022-12-17T11:24:24.757Z,14.77
2022-12-17T11:26:56.401Z,14.35
2022-12-17T11:29:26.961Z,14.32
2022-12-17T11:32:00.208Z,15.93
2022-12-17T11:34:45.484Z,14.50
2022-12-17T11:37:28.258Z,15.18
2022-12-17T11:40:32.836Z,15.10
2022-12-17T11:43:21.442Z,14.98
2022-12-17T11:46:09.959Z,14.27
2022-12-17T11:48:44.134Z,16.00
2022-12-17T11:51:21.608Z,14.73
2022-12-17T11:54:20.360Z,14.90
2022-12-17T11:57:02.337Z,16.08
2022-12-17T11:59:34.834Z,15.57
2022-12-17T12:02:11.270Z,15.52
2022-12-17T12:04:55.097Z,15.75
2022-12-17T12:07:49.456Z,15.55
2022-12-17T12:10:38.894Z,14.68
2022-12-17T12:13:43.874Z,14.90
2022-12-17T12:19:24.921Z,14.70
2022-12-17T12:22:13.679Z,16.27
2022-12-17T12:25:16.929Z,15.98
2022-12-17T12:27:54.925Z,15.05
2022-12-17T12:30:29.914Z,15.10
2022-12-17T12:33:21.017Z,15.38
2022-12-17T12:35:48.676Z,14.82
2022-12-17T12:38:23.217Z,15.75
2022-12-17T12:41:03.813Z,15.65
2022-12-17T12:43:35.371Z,16.50
2022-12-17T12:46:16.732Z,17.02
2022-12-17T12:49:11.058Z,17.02
2022-12-17T12:51:42.041Z,15.52
2022-12-17T12:54:28.034Z,16.08
2022-12-17T12:56:57.998Z,17.48
2022-12-17T12:59:29.403Z,18.60
2022-12-17T13:01:57.086Z,18.52
2022-12-17T13:04:27.423Z,18.98
2022-12-17T13:06:56.696Z,16.70
2022-12-17T13:09:30.902Z,16.55
2022-12-17T13:12:04.525Z,19.02
2022-12-17T13:15:02.573Z,19.00
2022-12-17T13:17:33.273Z,18.40
2022-12-17T13:20:01.876Z,18.52
2022-12-17T13:22:33.577Z,19.95
2022-12-17T13:25:30.304Z,19.45
2022-12-17T13:28:02.357Z,21.33
2022-12-17T13:30:36.568Z,20.30
2022-12-17T13:33:18.853Z,21.48
2022-12-17T13:36:05.907Z,21.42
2022-12-17T13:39:08.770Z,19.65
2022-12-17T13:41:36.709Z,20.65
2022-12-17T13:44:24.092Z,21.77
2022-12-17T13:46:54.333Z,22.13
2022-12-17T13:49:24.225Z,21.67
2022-12-17T13:52:11.690Z,21.42
2022-12-17T13:54:39.797Z,21.90
2022-12-17T13:57:15.799Z,21.73
2022-12-17T13:59:51.004Z,24.95
2022-12-17T14:02:33.237Z,23.08
2022-12-17T14:05:07.715Z,24.42
2022-12-17T14:07:39.473Z,22.73
2022-12-17T14:10:16.497Z,24.90
2022-12-17T14:12:46.889Z,24.75
2022-12-17T14:15:24.937Z,26.77
2022-12-17T14:17:54.144Z,29.38
2022-12-17T14:20:31.089Z,28.80
2022-12-17T14:23:20.564Z,27.52
2022-12-17T14:25:48.533Z,27.17
2022-12-17T14:28:33.189Z,28.25
2022-12-17T14:34:11.718Z,27.77
2022-12-17T14:36:41.850Z,27.15
2022-12-17T14:39:22.711Z,28.90
2022-12-17T14:41:53.384Z,28.38
2022-12-17T14:44:25.319Z,27.48
2022-12-17T14:47:11.374Z,27.02
2022-12-17T14:50:06.202Z,28.33
2022-12-17T14:52:35.931Z,27.30
2022-12-17T14:55:21.846Z,31.52
2022-12-17T14:57:54.199Z,30.23
2022-12-17T15:00:21.371Z,32.75
2022-12-17T15:02:55.641Z,33.15
2022-12-17T15:05:23.284Z,33.67
2022-12-17T15:07:50.764Z,34.13
2022-12-17T15:10:20.469Z,34.72
2022-12-17T15:12:48.188Z,34.17
2022-12-17T15:15:16.397Z,34.50
2022-12-17T15:17:44.528Z,33.17
2022-12-17T15:20:21.101Z,30.02
2022-12-17T15:22:48.795Z,30.70
2022-12-17T15:25:18.723Z,30.38
2022-12-17T15:27:46.554Z,31.63
2022-12-17T15:30:15.893Z,27.95
2022-12-17T15:32:43.857Z,29.40
2022-12-17T15:35:12.296Z,29.65
2022-12-17T15:37:39.939Z,30.33
2022-12-17T15:40:10.417Z,29.48
2022-12-17T15:42:38.095Z,32.00
2022-12-17T15:45:05.759Z,30.23
2022-12-17T15:47:35.620Z,29.55
2022-12-17T15:50:05.825Z,30.13
2022-12-17T15:52:33.349Z,32.20
2022-12-17T15:55:00.540Z,29.83
2022-12-17T15:57:27.945Z,29.42
2022-12-17T15:59:57.493Z,30.10
2022-12-17T16:02:25.318Z,28.00
2022-12-17T16:04:52.565Z,29.35
2022-12-17T16:07:20.062Z,26.52
2022-12-17T16:09:47.214Z,27.17
2022-12-17T16:12:14.668Z,25.10
2022-12-17T16:14:41.704Z,26.35
2022-12-17T16:17:11.640Z,26.90
2022-12-17T16:19:40.883Z,26.50
2022-12-17T16:22:11.465Z,26.98
2022-12-17T16:24:43.379Z,24.70
2022-12-17T16:27:13.017Z,26.35
2022-12-17T16:29:40.516Z,29.77
2022-12-17T16:32:07.878Z,25.58
2022-12-17T16:34:37.339Z,25.88
2022-12-17T16:37:04.834Z,25.65
2022-12-17T16:39:31.843Z,26.50
2022-12-17T16:41:59.235Z,25.38
2022-12-17T16:44:26.490Z,25.40
2022-12-17T16:46:53.940Z,24.67
2022-12-17T16:49:23.691Z,25.13
2022-12-17T16:51:52.912Z,24.65
2022-12-17T16:54:29.764Z,25.05
2022-12-17T16:56:57.289Z,23.45
2022-12-17T16:59:24.493Z,23.95
2022-12-17T17:01:52.787Z,25.42
2022-12-17T17:04:22.342Z,26.45
2022-12-17T17:06:54.346Z,26.60
2022-12-17T17:09:23.265Z,27.40
2022-12-17T17:11:55.649Z,32.28
2022-12-17T17:14:25.648Z,37.70
2022-12-17T17:16:53.248Z,34.35
2022-12-17T17:19:20.866Z,31.13
2022-12-17T17:21:52.727Z,32.10
2022-12-17T17:24:22.396Z,32.55
2022-12-17T17:26:51.892Z,30.23
2022-12-17T17:29:24.150Z,28.50
2022-12-17T17:34:40.094Z,28.80
2022-12-17T17:37:10.699Z,28.27
2022-12-17T17:39:37.968Z,28.10
2022-12-17T17:42:05.893Z,26.20
2022-12-17T17:44:33.388Z,26.70
2022-12-17T17:47:03.312Z,25.88
2022-12-17T17:49:30.797Z,25.98
2022-12-17T17:52:14.122Z,27.02
2022-12-17T17:54:41.349Z,26.30
2022-12-17T17:57:09.693Z,26.17
2022-12-17T17:59:37.973Z,27.77
2022-12-17T18:02:09.727Z,26.98
2022-12-17T18:04:37.080Z,28.50
2022-12-17T18:09:55.049Z,29.00
2022-12-17T18:12:25.024Z,27.20
2022-12-17T18:15:13.175Z,28.23
2022-12-17T18:17:40.530Z,26.05
2022-12-17T18:20:10.655Z,25.73
2022-12-17T18:22:40.509Z,52.05
2022-12-17T18:25:08.304Z,40.50
2022-12-17T18:27:35.798Z,33.08
2022-12-17T18:30:03.699Z,26.25
2022-12-17T18:32:31.259Z,27.33
2022-12-17T18:34:58.376Z,26.38
2022-12-17T18:37:29.253Z,25.00
2022-12-17T18:39:56.408Z,25.77
2022-12-17T18:42:23.709Z,25.52
2022-12-17T18:44:50.786Z,24.83
2022-12-17T18:47:20.852Z,25.42
2022-12-17T18:49:48.105Z,24.27
2022-12-17T18:52:17.951Z,26.27
2022-12-17T18:54:45.309Z,27.00
2022-12-17T18:57:13.460Z,27.88
2022-12-17T18:59:41.203Z,24.52
2022-12-17T19:02:13.159Z,24.58
2022-12-17T19:04:40.888Z,25.73
2022-12-17T19:07:08.431Z,23.55
2022-12-17T19:09:36.344Z,23.90
2022-12-17T19:12:06.327Z,24.08
2022-12-17T19:14:34.026Z,24.77
2022-12-17T19:17:01.877Z,22.75
2022-12-17T19:19:28.922Z,23.05
2022-12-17T19:21:58.786Z,22.98
2022-12-17T19:24:28.221Z,21.05
2022-12-17T19:26:55.620Z,23.83
2022-12-17T19:29:22.939Z,21.70
2022-12-17T19:31:50.640Z,22.77
2022-12-17T19:34:19.094Z,21.08
2022-12-17T19:36:47.102Z,20.05
2022-12-17T19:39:16.919Z,20.95
2022-12-17T19:41:48.873Z,22.08
2022-12-17T19:44:17.422Z,23.98
2022-12-17T19:46:44.861Z,21.13
2022-12-17T19:49:14.153Z,22.52
2022-12-17T19:51:42.299Z,22.27
2022-12-17T19:54:09.666Z,23.10
2022-12-17T19:56:37.217Z,24.88
2022-12-17T19:59:07.508Z,21.98
2022-12-17T20:01:39.313Z,21.35
2022-12-17T20:04:06.700Z,20.73
2022-12-17T20:06:36.000Z,20.55
2022-12-17T20:09:05.460Z,20.63
2022-12-17T20:11:35.539Z,20.27
2022-12-17T20:14:02.829Z,19.95
2022-12-17T20:16:32.672Z,27.73
2022-12-17T20:19:01.073Z,19.70
2022-12-17T20:21:31.336Z,20.80
2022-12-17T20:23:58.473Z,22.10
2022-12-17T20:26:26.184Z,21.13
2022-12-17T20:29:04.528Z,20.33
2022-12-17T20:31:32.885Z,21.13
2022-12-17T20:34:13.428Z,20.95
2022-12-17T20:36:41.694Z,21.30
2022-12-17T20:39:09.659Z,21.23
2022-12-17T20:41:37.824Z,21.75
2022-12-17T20:44:08.670Z,22.73
2022-12-17T20:46:45.293Z,23.02
2022-12-17T20:49:14.986Z,24.20
2022-12-17T20:51:45.508Z,21.17
2022-12-17T20:54:12.658Z,21.40
2022-12-17T20:56:40.924Z,21.67
2022-12-17T20:59:30.894Z,21.25
2022-12-17T21:01:58.657Z,22.45
2022-12-17T21:04:28.164Z,22.10
2022-12-17T21:06:55.664Z,21.80
2022-12-17T21:09:27.846Z,22.45
2022-12-17T21:11:55.239Z,22.25
2022-12-17T21:17:06.795Z,22.83
2022-12-17T21:19:35.496Z,20.88
2022-12-17T21:22:06.140Z,22.65
2022-12-17T21:24:38.310Z,22.55
2022-12-17T21:27:11.138Z,22.33
2022-12-17T21:30:07.593Z,22.27
2022-12-17T21:32:40.998Z,20.95
2022-12-17T21:35:08.352Z,21.10
2022-12-17T21:37:35.872Z,21.35
2022-12-17T21:40:02.942Z,23.00
2022-12-17T21:42:30.488Z,22.15
2022-12-17T21:44:59.818Z,22.10
2022-12-17T21:47:29.949Z,22.50
2022-12-17T21:50:12.144Z,23.23
2022-12-17T21:52:39.627Z,22.27
2022-12-17T21:55:07.184Z,22.25
2022-12-17T21:57:34.552Z,23.00
2022-12-17T22:00:01.815Z,23.63
2022-12-17T22:02:31.677Z,24.35
2022-12-17T22:04:59.790Z,22.27
2022-12-17T22:07:29.647Z,21.98
2022-12-17T22:10:35.895Z,19.57
2022-12-17T22:12:48.098Z,21.63
2022-12-17T22:15:15.604Z,22.23
2022-12-17T22:17:43.835Z,21.67
2022-12-17T22:20:12.352Z,20.63
2022-12-17T22:22:39.845Z,22.05
2022-12-17T22:25:09.883Z,20.08
2022-12-17T22:27:39.987Z,21.17
2022-12-17T22:30:11.822Z,22.45
2022-12-17T22:32:39.351Z,19.77
2022-12-17T22:36:25.878Z,21.15
2022-12-17T22:40:52.049Z,21.00
2022-12-17T22:43:35.636Z,21.67
2022-12-17T22:44:43.457Z,21.60
2022-12-17T22:46:19.925Z,20.20
2022-12-17T22:48:47.639Z,21.02
2022-12-17T22:51:26.956Z,21.65
2022-12-17T22:54:01.380Z,21.48
2022-12-17T22:56:54.353Z,20.92
2022-12-17T22:59:22.198Z,21.45
2022-12-17T23:01:51.539Z,16.50
2022-12-17T23:04:21.424Z,20.77
2022-12-17T23:06:48.531Z,21.75
2022-12-17T23:09:18.298Z,21.70
2022-12-17T23:11:46.613Z,20.30
2022-12-17T23:14:17.409Z,21.48
2022-12-17T23:16:47.792Z,19.77
2022-12-17T23:19:15.522Z,21.27
2022-12-17T23:21:42.663Z,21.52
2022-12-17T23:24:10.253Z,21.92
2022-12-17T23:26:40.326Z,22.30
2022-12-17T23:29:19.038Z,24.73
2022-12-17T23:31:47.550Z,22.52
2022-12-17T23:34:15.464Z,21.27
2022-12-17T23:36:45.167Z,21.80
2022-12-17T23:39:12.936Z,20.77
2022-12-17T23:41:40.071Z,21.35
2022-12-17T23:44:07.442Z,21.80
2022-12-17T23:46:34.870Z,21.10
2022-12-17T23:49:05.581Z,22.88
2022-12-17T23:51:33.154Z,23.98
2022-12-17T23:54:03.109Z,24.65
2022-12-17T23:56:32.787Z,23.33
2022-12-17T23:59:03.432Z,22.52
